sensor_id;sensor_type;location;lat;lon;timestamp;P1;durP1;ratioP1;P2;durP2;ratioP2
66669;SDS011;53568;52.164;4.472;2023-07-13T00:00:03;5.58;;;4.31;;
66669;SDS011;53568;52.164;4.472;2023-07-13T00:02:34;4.27;;;3.28;;
66669;SDS011;53568;52.164;4.472;2023-07-13T00:04:59;3.77;;;2.95;;
66669;SDS011;53568;52.164;4.472;2023-07-13T00:07:25;3.54;;;2.72;;
66669;SDS011;53568;52.164;4.472;2023-07-13T00:09:51;3.75;;;2.83;;
66669;SDS011;53568;52.164;4.472;2023-07-13T00:12:27;3.93;;;2.98;;
66669;SDS011;53568;52.164;4.472;2023-07-13T00:14:58;3.91;;;2.96;;
66669;SDS011;53568;52.164;4.472;2023-07-13T00:17:25;3.38;;;2.59;;
66669;SDS011;53568;52.164;4.472;2023-07-13T00:19:52;3.55;;;2.70;;
66669;SDS011;53568;52.164;4.472;2023-07-13T00:22:18;3.71;;;2.85;;
66669;SDS011;53568;52.164;4.472;2023-07-13T00:24:44;3.73;;;2.89;;
66669;SDS011;53568;52.164;4.472;2023-07-13T00:27:10;3.59;;;2.80;;
66669;SDS011;53568;52.164;4.472;2023-07-13T00:29:36;3.84;;;2.98;;
66669;SDS011;53568;52.164;4.472;2023-07-13T00:32:03;3.67;;;2.81;;
66669;SDS011;53568;52.164;4.472;2023-07-13T00:34:29;4.25;;;3.12;;
66669;SDS011;53568;52.164;4.472;2023-07-13T00:36:55;4.11;;;3.00;;
66669;SDS011;53568;52.164;4.472;2023-07-13T00:39:21;3.71;;;2.76;;
66669;SDS011;53568;52.164;4.472;2023-07-13T00:41:47;3.78;;;2.85;;
66669;SDS011;53568;52.164;4.472;2023-07-13T00:44:14;3.71;;;2.80;;
66669;SDS011;53568;52.164;4.472;2023-07-13T00:46:41;3.58;;;2.69;;
66669;SDS011;53568;52.164;4.472;2023-07-13T00:49:07;3.64;;;2.81;;
66669;SDS011;53568;52.164;4.472;2023-07-13T00:51:45;3.29;;;2.57;;
66669;SDS011;53568;52.164;4.472;2023-07-13T00:54:17;3.23;;;2.51;;
66669;SDS011;53568;52.164;4.472;2023-07-13T00:56:48;3.26;;;2.48;;
66669;SDS011;53568;52.164;4.472;2023-07-13T00:59:18;3.26;;;2.46;;
66669;SDS011;53568;52.164;4.472;2023-07-13T01:01:46;3.15;;;2.38;;
66669;SDS011;53568;52.164;4.472;2023-07-13T01:04:12;3.08;;;2.41;;
66669;SDS011;53568;52.164;4.472;2023-07-13T01:06:39;2.64;;;2.10;;
66669;SDS011;53568;52.164;4.472;2023-07-13T01:09:06;2.84;;;2.25;;
66669;SDS011;53568;52.164;4.472;2023-07-13T01:11:33;2.52;;;2.01;;
66669;SDS011;53568;52.164;4.472;2023-07-13T01:14:00;2.96;;;2.41;;
66669;SDS011;53568;52.164;4.472;2023-07-13T01:16:30;2.50;;;2.01;;
66669;SDS011;53568;52.164;4.472;2023-07-13T01:18:58;2.26;;;1.84;;
66669;SDS011;53568;52.164;4.472;2023-07-13T01:21:24;2.51;;;2.05;;
66669;SDS011;53568;52.164;4.472;2023-07-13T01:23:52;2.04;;;1.70;;
66669;SDS011;53568;52.164;4.472;2023-07-13T01:26:17;2.06;;;1.73;;
66669;SDS011;53568;52.164;4.472;2023-07-13T01:28:43;1.98;;;1.71;;
66669;SDS011;53568;52.164;4.472;2023-07-13T01:31:09;1.74;;;1.52;;
66669;SDS011;53568;52.164;4.472;2023-07-13T01:33:36;1.96;;;1.71;;
66669;SDS011;53568;52.164;4.472;2023-07-13T01:36:05;2.06;;;1.77;;
66669;SDS011;53568;52.164;4.472;2023-07-13T01:38:33;1.96;;;1.66;;
66669;SDS011;53568;52.164;4.472;2023-07-13T01:40:59;1.95;;;1.64;;
66669;SDS011;53568;52.164;4.472;2023-07-13T01:43:25;2.00;;;1.72;;
66669;SDS011;53568;52.164;4.472;2023-07-13T01:45:51;1.77;;;1.52;;
66669;SDS011;53568;52.164;4.472;2023-07-13T01:48:17;1.83;;;1.57;;
66669;SDS011;53568;52.164;4.472;2023-07-13T01:50:42;1.93;;;1.64;;
66669;SDS011;53568;52.164;4.472;2023-07-13T01:53:08;1.89;;;1.61;;
66669;SDS011;53568;52.164;4.472;2023-07-13T01:55:34;2.09;;;1.80;;
66669;SDS011;53568;52.164;4.472;2023-07-13T01:58:01;2.25;;;1.94;;
66669;SDS011;53568;52.164;4.472;2023-07-13T02:00:27;2.03;;;1.76;;
66669;SDS011;53568;52.164;4.472;2023-07-13T02:02:53;2.11;;;1.87;;
66669;SDS011;53568;52.164;4.472;2023-07-13T02:05:19;1.86;;;1.65;;
66669;SDS011;53568;52.164;4.472;2023-07-13T02:07:45;2.15;;;1.86;;
66669;SDS011;53568;52.164;4.472;2023-07-13T02:10:11;2.03;;;1.74;;
66669;SDS011;53568;52.164;4.472;2023-07-13T02:12:37;1.95;;;1.69;;
66669;SDS011;53568;52.164;4.472;2023-07-13T02:15:04;2.20;;;1.90;;
66669;SDS011;53568;52.164;4.472;2023-07-13T02:17:30;2.19;;;1.88;;
66669;SDS011;53568;52.164;4.472;2023-07-13T02:19:57;1.99;;;1.77;;
66669;SDS011;53568;52.164;4.472;2023-07-13T02:22:23;1.89;;;1.71;;
66669;SDS011;53568;52.164;4.472;2023-07-13T02:24:48;1.75;;;1.57;;
66669;SDS011;53568;52.164;4.472;2023-07-13T02:27:14;1.87;;;1.66;;
66669;SDS011;53568;52.164;4.472;2023-07-13T02:29:40;1.94;;;1.72;;
66669;SDS011;53568;52.164;4.472;2023-07-13T02:32:06;2.24;;;1.95;;
66669;SDS011;53568;52.164;4.472;2023-07-13T02:34:32;2.10;;;1.81;;
66669;SDS011;53568;52.164;4.472;2023-07-13T02:36:57;2.25;;;1.95;;
66669;SDS011;53568;52.164;4.472;2023-07-13T02:39:23;2.36;;;2.03;;
66669;SDS011;53568;52.164;4.472;2023-07-13T02:41:48;2.45;;;2.06;;
66669;SDS011;53568;52.164;4.472;2023-07-13T02:44:15;2.24;;;1.87;;
66669;SDS011;53568;52.164;4.472;2023-07-13T02:46:40;1.92;;;1.62;;
66669;SDS011;53568;52.164;4.472;2023-07-13T02:49:06;2.30;;;2.00;;
66669;SDS011;53568;52.164;4.472;2023-07-13T02:51:32;2.10;;;1.86;;
66669;SDS011;53568;52.164;4.472;2023-07-13T02:54:01;2.19;;;1.95;;
66669;SDS011;53568;52.164;4.472;2023-07-13T02:56:28;2.24;;;2.01;;
66669;SDS011;53568;52.164;4.472;2023-07-13T02:58:55;2.18;;;1.94;;
66669;SDS011;53568;52.164;4.472;2023-07-13T03:01:21;2.39;;;2.09;;
66669;SDS011;53568;52.164;4.472;2023-07-13T03:03:48;2.50;;;2.20;;
66669;SDS011;53568;52.164;4.472;2023-07-13T03:06:14;2.75;;;2.40;;
66669;SDS011;53568;52.164;4.472;2023-07-13T03:08:40;2.63;;;2.31;;
66669;SDS011;53568;52.164;4.472;2023-07-13T03:11:08;2.57;;;2.26;;
66669;SDS011;53568;52.164;4.472;2023-07-13T03:13:36;2.61;;;2.30;;
66669;SDS011;53568;52.164;4.472;2023-07-13T03:16:02;2.60;;;2.29;;
66669;SDS011;53568;52.164;4.472;2023-07-13T03:18:27;3.08;;;2.66;;
66669;SDS011;53568;52.164;4.472;2023-07-13T03:20:53;2.90;;;2.44;;
66669;SDS011;53568;52.164;4.472;2023-07-13T03:23:20;3.20;;;2.65;;
66669;SDS011;53568;52.164;4.472;2023-07-13T03:25:47;3.63;;;3.00;;
66669;SDS011;53568;52.164;4.472;2023-07-13T03:28:13;2.91;;;2.50;;
66669;SDS011;53568;52.164;4.472;2023-07-13T03:30:40;3.14;;;2.81;;
66669;SDS011;53568;52.164;4.472;2023-07-13T03:33:05;3.38;;;2.91;;
66669;SDS011;53568;52.164;4.472;2023-07-13T03:35:31;3.74;;;3.10;;
66669;SDS011;53568;52.164;4.472;2023-07-13T03:37:57;3.75;;;3.12;;
66669;SDS011;53568;52.164;4.472;2023-07-13T03:40:24;3.73;;;3.15;;
66669;SDS011;53568;52.164;4.472;2023-07-13T03:42:52;3.81;;;3.23;;
66669;SDS011;53568;52.164;4.472;2023-07-13T03:45:18;3.71;;;3.14;;
66669;SDS011;53568;52.164;4.472;2023-07-13T03:47:43;4.04;;;3.45;;
66669;SDS011;53568;52.164;4.472;2023-07-13T03:50:09;3.67;;;3.14;;
66669;SDS011;53568;52.164;4.472;2023-07-13T03:52:35;3.94;;;3.40;;
66669;SDS011;53568;52.164;4.472;2023-07-13T03:55:01;3.83;;;3.31;;
66669;SDS011;53568;52.164;4.472;2023-07-13T03:57:27;4.13;;;3.47;;
66669;SDS011;53568;52.164;4.472;2023-07-13T03:59:53;4.01;;;3.32;;
66669;SDS011;53568;52.164;4.472;2023-07-13T04:02:18;4.59;;;3.72;;
66669;SDS011;53568;52.164;4.472;2023-07-13T04:04:46;4.57;;;3.72;;
66669;SDS011;53568;52.164;4.472;2023-07-13T04:07:12;4.36;;;3.54;;
66669;SDS011;53568;52.164;4.472;2023-07-13T04:09:38;4.37;;;3.61;;
66669;SDS011;53568;52.164;4.472;2023-07-13T04:12:03;4.38;;;3.65;;
66669;SDS011;53568;52.164;4.472;2023-07-13T04:14:29;4.58;;;3.71;;
66669;SDS011;53568;52.164;4.472;2023-07-13T04:16:55;4.69;;;3.86;;
66669;SDS011;53568;52.164;4.472;2023-07-13T04:19:21;4.39;;;3.67;;
66669;SDS011;53568;52.164;4.472;2023-07-13T04:21:46;4.10;;;3.45;;
66669;SDS011;53568;52.164;4.472;2023-07-13T04:24:12;4.31;;;3.63;;
66669;SDS011;53568;52.164;4.472;2023-07-13T04:26:38;4.52;;;3.73;;
66669;SDS011;53568;52.164;4.472;2023-07-13T04:29:05;4.34;;;3.61;;
66669;SDS011;53568;52.164;4.472;2023-07-13T04:31:31;4.20;;;3.57;;
66669;SDS011;53568;52.164;4.472;2023-07-13T04:33:57;4.20;;;3.57;;
66669;SDS011;53568;52.164;4.472;2023-07-13T04:36:22;3.80;;;3.26;;
66669;SDS011;53568;52.164;4.472;2023-07-13T04:38:52;4.33;;;3.64;;
66669;SDS011;53568;52.164;4.472;2023-07-13T04:41:19;4.36;;;3.68;;
66669;SDS011;53568;52.164;4.472;2023-07-13T04:43:45;4.21;;;3.65;;
66669;SDS011;53568;52.164;4.472;2023-07-13T04:46:12;4.29;;;3.66;;
66669;SDS011;53568;52.164;4.472;2023-07-13T04:48:39;4.22;;;3.57;;
66669;SDS011;53568;52.164;4.472;2023-07-13T04:51:06;4.13;;;3.51;;
66669;SDS011;53568;52.164;4.472;2023-07-13T04:53:32;4.13;;;3.57;;
66669;SDS011;53568;52.164;4.472;2023-07-13T04:55:59;3.90;;;3.41;;
66669;SDS011;53568;52.164;4.472;2023-07-13T04:58:26;3.80;;;3.40;;
66669;SDS011;53568;52.164;4.472;2023-07-13T05:00:52;3.87;;;3.39;;
66669;SDS011;53568;52.164;4.472;2023-07-13T05:03:18;3.94;;;3.48;;
66669;SDS011;53568;52.164;4.472;2023-07-13T05:05:54;3.82;;;3.34;;
66669;SDS011;53568;52.164;4.472;2023-07-13T05:08:30;4.00;;;3.51;;
66669;SDS011;53568;52.164;4.472;2023-07-13T05:10:56;3.81;;;3.33;;
66669;SDS011;53568;52.164;4.472;2023-07-13T05:13:21;3.63;;;3.19;;
66669;SDS011;53568;52.164;4.472;2023-07-13T05:15:57;3.92;;;3.50;;
66669;SDS011;53568;52.164;4.472;2023-07-13T05:18:25;3.53;;;3.16;;
66669;SDS011;53568;52.164;4.472;2023-07-13T05:21:02;3.71;;;3.37;;
66669;SDS011;53568;52.164;4.472;2023-07-13T05:23:29;3.33;;;3.10;;
66669;SDS011;53568;52.164;4.472;2023-07-13T05:25:57;3.56;;;3.34;;
66669;SDS011;53568;52.164;4.472;2023-07-13T05:28:24;3.32;;;3.10;;
66669;SDS011;53568;52.164;4.472;2023-07-13T05:30:50;3.78;;;3.42;;
66669;SDS011;53568;52.164;4.472;2023-07-13T05:33:17;3.55;;;3.16;;
66669;SDS011;53568;52.164;4.472;2023-07-13T05:35:43;3.76;;;3.36;;
66669;SDS011;53568;52.164;4.472;2023-07-13T05:38:08;3.64;;;3.25;;
66669;SDS011;53568;52.164;4.472;2023-07-13T05:40:34;3.47;;;3.16;;
66669;SDS011;53568;52.164;4.472;2023-07-13T05:42:59;3.35;;;3.11;;
66669;SDS011;53568;52.164;4.472;2023-07-13T05:45:24;2.99;;;2.84;;
66669;SDS011;53568;52.164;4.472;2023-07-13T05:47:51;3.28;;;3.12;;
66669;SDS011;53568;52.164;4.472;2023-07-13T05:50:16;3.08;;;2.94;;
66669;SDS011;53568;52.164;4.472;2023-07-13T05:52:42;3.20;;;3.05;;
66669;SDS011;53568;52.164;4.472;2023-07-13T05:55:07;3.45;;;3.31;;
66669;SDS011;53568;52.164;4.472;2023-07-13T05:57:33;3.17;;;3.08;;
66669;SDS011;53568;52.164;4.472;2023-07-13T05:59:59;3.29;;;3.16;;
66669;SDS011;53568;52.164;4.472;2023-07-13T06:02:24;3.32;;;3.15;;
66669;SDS011;53568;52.164;4.472;2023-07-13T06:04:51;3.56;;;3.29;;
66669;SDS011;53568;52.164;4.472;2023-07-13T06:07:17;3.36;;;3.12;;
66669;SDS011;53568;52.164;4.472;2023-07-13T06:09:42;3.44;;;3.20;;
66669;SDS011;53568;52.164;4.472;2023-07-13T06:12:08;3.12;;;2.95;;
66669;SDS011;53568;52.164;4.472;2023-07-13T06:14:34;3.67;;;3.44;;
66669;SDS011;53568;52.164;4.472;2023-07-13T06:16:59;3.44;;;3.20;;
66669;SDS011;53568;52.164;4.472;2023-07-13T06:19:25;3.54;;;3.28;;
66669;SDS011;53568;52.164;4.472;2023-07-13T06:21:50;3.34;;;3.11;;
66669;SDS011;53568;52.164;4.472;2023-07-13T06:24:16;3.43;;;3.24;;
66669;SDS011;53568;52.164;4.472;2023-07-13T06:26:41;3.22;;;3.04;;
66669;SDS011;53568;52.164;4.472;2023-07-13T06:29:07;3.24;;;3.12;;
66669;SDS011;53568;52.164;4.472;2023-07-13T06:31:33;3.57;;;3.36;;
66669;SDS011;53568;52.164;4.472;2023-07-13T06:33:58;3.32;;;3.15;;
66669;SDS011;53568;52.164;4.472;2023-07-13T06:36:24;3.21;;;3.05;;
66669;SDS011;53568;52.164;4.472;2023-07-13T06:38:49;3.34;;;3.17;;
66669;SDS011;53568;52.164;4.472;2023-07-13T06:41:15;3.43;;;3.25;;
66669;SDS011;53568;52.164;4.472;2023-07-13T06:43:40;3.69;;;3.49;;
66669;SDS011;53568;52.164;4.472;2023-07-13T06:46:06;3.29;;;3.10;;
66669;SDS011;53568;52.164;4.472;2023-07-13T06:48:32;3.52;;;3.25;;
66669;SDS011;53568;52.164;4.472;2023-07-13T06:50:57;3.49;;;3.24;;
66669;SDS011;53568;52.164;4.472;2023-07-13T06:53:23;3.44;;;3.16;;
66669;SDS011;53568;52.164;4.472;2023-07-13T06:55:49;3.41;;;3.16;;
66669;SDS011;53568;52.164;4.472;2023-07-13T06:58:15;3.13;;;2.90;;
66669;SDS011;53568;52.164;4.472;2023-07-13T07:00:42;3.58;;;3.23;;
66669;SDS011;53568;52.164;4.472;2023-07-13T07:03:08;3.48;;;3.17;;
66669;SDS011;53568;52.164;4.472;2023-07-13T07:05:34;3.24;;;3.02;;
66669;SDS011;53568;52.164;4.472;2023-07-13T07:07:59;3.01;;;2.87;;
66669;SDS011;53568;52.164;4.472;2023-07-13T07:10:25;3.29;;;3.15;;
66669;SDS011;53568;52.164;4.472;2023-07-13T07:12:51;3.18;;;3.07;;
66669;SDS011;53568;52.164;4.472;2023-07-13T07:15:16;3.49;;;3.34;;
66669;SDS011;53568;52.164;4.472;2023-07-13T07:17:42;3.43;;;3.29;;
66669;SDS011;53568;52.164;4.472;2023-07-13T07:20:09;2.95;;;2.87;;
66669;SDS011;53568;52.164;4.472;2023-07-13T07:22:35;3.50;;;3.33;;
66669;SDS011;53568;52.164;4.472;2023-07-13T07:25:00;3.41;;;3.22;;
66669;SDS011;53568;52.164;4.472;2023-07-13T07:27:26;3.27;;;3.09;;
66669;SDS011;53568;52.164;4.472;2023-07-13T07:29:51;3.60;;;3.36;;
66669;SDS011;53568;52.164;4.472;2023-07-13T07:32:17;3.13;;;2.95;;
66669;SDS011;53568;52.164;4.472;2023-07-13T07:34:44;3.08;;;2.96;;
66669;SDS011;53568;52.164;4.472;2023-07-13T07:37:10;2.75;;;2.64;;
66669;SDS011;53568;52.164;4.472;2023-07-13T07:39:37;2.83;;;2.73;;
66669;SDS011;53568;52.164;4.472;2023-07-13T07:42:03;2.77;;;2.69;;
66669;SDS011;53568;52.164;4.472;2023-07-13T07:44:30;2.91;;;2.82;;
66669;SDS011;53568;52.164;4.472;2023-07-13T07:46:56;2.81;;;2.76;;
66669;SDS011;53568;52.164;4.472;2023-07-13T07:49:22;2.88;;;2.83;;
66669;SDS011;53568;52.164;4.472;2023-07-13T07:51:47;3.15;;;3.08;;
66669;SDS011;53568;52.164;4.472;2023-07-13T07:54:13;3.39;;;3.33;;
66669;SDS011;53568;52.164;4.472;2023-07-13T07:56:40;3.42;;;3.32;;
66669;SDS011;53568;52.164;4.472;2023-07-13T07:59:05;3.39;;;3.32;;
66669;SDS011;53568;52.164;4.472;2023-07-13T08:01:31;3.37;;;3.29;;
66669;SDS011;53568;52.164;4.472;2023-07-13T08:03:56;3.30;;;3.24;;
66669;SDS011;53568;52.164;4.472;2023-07-13T08:06:22;3.43;;;3.32;;
66669;SDS011;53568;52.164;4.472;2023-07-13T08:08:48;3.13;;;3.03;;
66669;SDS011;53568;52.164;4.472;2023-07-13T08:11:14;3.75;;;3.61;;
66669;SDS011;53568;52.164;4.472;2023-07-13T08:13:39;3.79;;;3.61;;
66669;SDS011;53568;52.164;4.472;2023-07-13T08:16:05;3.97;;;3.79;;
66669;SDS011;53568;52.164;4.472;2023-07-13T08:18:31;4.03;;;3.81;;
66669;SDS011;53568;52.164;4.472;2023-07-13T08:20:56;3.95;;;3.76;;
66669;SDS011;53568;52.164;4.472;2023-07-13T08:23:23;3.93;;;3.77;;
66669;SDS011;53568;52.164;4.472;2023-07-13T08:25:50;3.85;;;3.68;;
66669;SDS011;53568;52.164;4.472;2023-07-13T08:28:17;3.91;;;3.76;;
66669;SDS011;53568;52.164;4.472;2023-07-13T08:30:42;4.40;;;4.16;;
66669;SDS011;53568;52.164;4.472;2023-07-13T08:33:08;4.07;;;3.89;;
66669;SDS011;53568;52.164;4.472;2023-07-13T08:35:33;3.99;;;3.85;;
66669;SDS011;53568;52.164;4.472;2023-07-13T08:37:59;3.75;;;3.65;;
66669;SDS011;53568;52.164;4.472;2023-07-13T08:40:25;3.64;;;3.59;;
66669;SDS011;53568;52.164;4.472;2023-07-13T08:42:58;3.50;;;3.49;;
66669;SDS011;53568;52.164;4.472;2023-07-13T08:45:36;3.65;;;3.60;;
66669;SDS011;53568;52.164;4.472;2023-07-13T08:48:26;3.49;;;3.34;;
66669;SDS011;53568;52.164;4.472;2023-07-13T08:50:58;3.65;;;3.60;;
66669;SDS011;53568;52.164;4.472;2023-07-13T08:53:30;3.73;;;3.69;;
66669;SDS011;53568;52.164;4.472;2023-07-13T08:56:03;3.85;;;3.73;;
66669;SDS011;53568;52.164;4.472;2023-07-13T08:58:39;3.97;;;3.81;;
66669;SDS011;53568;52.164;4.472;2023-07-13T09:01:17;3.86;;;3.74;;
66669;SDS011;53568;52.164;4.472;2023-07-13T09:12:45;3.87;;;3.77;;
66669;SDS011;53568;52.164;4.472;2023-07-13T09:17:51;3.90;;;3.76;;
66669;SDS011;53568;52.164;4.472;2023-07-13T09:20:29;3.94;;;3.78;;
66669;SDS011;53568;52.164;4.472;2023-07-13T09:23:01;4.13;;;4.03;;
66669;SDS011;53568;52.164;4.472;2023-07-13T09:25:36;3.77;;;3.63;;
66669;SDS011;53568;52.164;4.472;2023-07-13T09:28:09;3.90;;;3.74;;
66669;SDS011;53568;52.164;4.472;2023-07-13T09:31:13;3.97;;;3.88;;
66669;SDS011;53568;52.164;4.472;2023-07-13T09:33:35;3.72;;;3.64;;
66669;SDS011;53568;52.164;4.472;2023-07-13T09:36:00;3.99;;;3.90;;
66669;SDS011;53568;52.164;4.472;2023-07-13T09:38:28;3.91;;;3.91;;
66669;SDS011;53568;52.164;4.472;2023-07-13T09:44:14;3.64;;;3.63;;
66669;SDS011;53568;52.164;4.472;2023-07-13T09:46:44;3.99;;;3.99;;
66669;SDS011;53568;52.164;4.472;2023-07-13T09:49:23;4.16;;;4.03;;
66669;SDS011;53568;52.164;4.472;2023-07-13T09:51:50;3.91;;;3.81;;
66669;SDS011;53568;52.164;4.472;2023-07-13T09:54:25;3.92;;;3.82;;
66669;SDS011;53568;52.164;4.472;2023-07-13T09:56:57;3.85;;;3.75;;
66669;SDS011;53568;52.164;4.472;2023-07-13T09:59:26;3.69;;;3.61;;
66669;SDS011;53568;52.164;4.472;2023-07-13T10:01:54;3.77;;;3.69;;
66669;SDS011;53568;52.164;4.472;2023-07-13T10:04:27;3.60;;;3.53;;
66669;SDS011;53568;52.164;4.472;2023-07-13T10:07:06;3.60;;;3.53;;
66669;SDS011;53568;52.164;4.472;2023-07-13T10:09:34;3.62;;;3.53;;
66669;SDS011;53568;52.164;4.472;2023-07-13T10:12:00;3.50;;;3.48;;
66669;SDS011;53568;52.164;4.472;2023-07-13T10:14:26;3.53;;;3.53;;
66669;SDS011;53568;52.164;4.472;2023-07-13T10:16:58;3.84;;;3.84;;
66669;SDS011;53568;52.164;4.472;2023-07-13T10:19:32;4.00;;;4.00;;
66669;SDS011;53568;52.164;4.472;2023-07-13T10:22:02;3.83;;;3.83;;
66669;SDS011;53568;52.164;4.472;2023-07-13T10:24:38;3.65;;;3.65;;
66669;SDS011;53568;52.164;4.472;2023-07-13T10:27:10;3.88;;;3.88;;
66669;SDS011;53568;52.164;4.472;2023-07-13T10:29:44;3.83;;;3.78;;
66669;SDS011;53568;52.164;4.472;2023-07-13T10:32:14;3.62;;;3.62;;
66669;SDS011;53568;52.164;4.472;2023-07-13T10:34:40;3.89;;;3.89;;
66669;SDS011;53568;52.164;4.472;2023-07-13T10:37:17;4.18;;;4.16;;
66669;SDS011;53568;52.164;4.472;2023-07-13T10:39:47;4.07;;;4.01;;
66669;SDS011;53568;52.164;4.472;2023-07-13T10:42:18;3.98;;;3.93;;
66669;SDS011;53568;52.164;4.472;2023-07-13T10:45:00;3.89;;;3.89;;
66669;SDS011;53568;52.164;4.472;2023-07-13T10:47:26;3.82;;;3.82;;
66669;SDS011;53568;52.164;4.472;2023-07-13T10:49:54;3.91;;;3.91;;
66669;SDS011;53568;52.164;4.472;2023-07-13T10:58:01;3.85;;;3.85;;
66669;SDS011;53568;52.164;4.472;2023-07-13T11:00:43;3.69;;;3.68;;
66669;SDS011;53568;52.164;4.472;2023-07-13T11:03:14;4.12;;;4.10;;
66669;SDS011;53568;52.164;4.472;2023-07-13T11:05:43;3.92;;;3.92;;
66669;SDS011;53568;52.164;4.472;2023-07-13T11:08:16;4.24;;;4.24;;
66669;SDS011;53568;52.164;4.472;2023-07-13T11:10:58;4.42;;;4.42;;
66669;SDS011;53568;52.164;4.472;2023-07-13T11:13:37;4.13;;;4.13;;
66669;SDS011;53568;52.164;4.472;2023-07-13T11:18:51;4.12;;;4.12;;
66669;SDS011;53568;52.164;4.472;2023-07-13T11:21:30;3.59;;;3.59;;
66669;SDS011;53568;52.164;4.472;2023-07-13T11:26:43;3.80;;;3.79;;
66669;SDS011;53568;52.164;4.472;2023-07-13T11:29:31;3.84;;;3.83;;
66669;SDS011;53568;52.164;4.472;2023-07-13T11:32:22;3.74;;;3.74;;
66669;SDS011;53568;52.164;4.472;2023-07-13T11:34:51;3.82;;;3.80;;
66669;SDS011;53568;52.164;4.472;2023-07-13T11:37:19;3.92;;;3.90;;
66669;SDS011;53568;52.164;4.472;2023-07-13T11:39:46;3.81;;;3.81;;
66669;SDS011;53568;52.164;4.472;2023-07-13T11:42:16;4.13;;;4.13;;
66669;SDS011;53568;52.164;4.472;2023-07-13T11:44:45;4.20;;;4.19;;
66669;SDS011;53568;52.164;4.472;2023-07-13T11:47:20;4.29;;;4.28;;
66669;SDS011;53568;52.164;4.472;2023-07-13T11:49:48;3.99;;;3.98;;
66669;SDS011;53568;52.164;4.472;2023-07-13T11:52:18;4.31;;;4.31;;
66669;SDS011;53568;52.164;4.472;2023-07-13T11:57:30;3.96;;;3.96;;
66669;SDS011;53568;52.164;4.472;2023-07-13T12:00:15;4.02;;;4.02;;
66669;SDS011;53568;52.164;4.472;2023-07-13T12:02:48;3.64;;;3.64;;
66669;SDS011;53568;52.164;4.472;2023-07-13T12:05:19;4.08;;;4.08;;
66669;SDS011;53568;52.164;4.472;2023-07-13T12:10:41;3.59;;;3.56;;
66669;SDS011;53568;52.164;4.472;2023-07-13T12:13:12;3.60;;;3.58;;
66669;SDS011;53568;52.164;4.472;2023-07-13T12:15:39;3.26;;;3.26;;
66669;SDS011;53568;52.164;4.472;2023-07-13T12:18:31;4.19;;;4.19;;
66669;SDS011;53568;52.164;4.472;2023-07-13T12:20:59;3.65;;;3.65;;
66669;SDS011;53568;52.164;4.472;2023-07-13T12:23:43;3.56;;;3.56;;
66669;SDS011;53568;52.164;4.472;2023-07-13T12:26:12;3.51;;;3.51;;
66669;SDS011;53568;52.164;4.472;2023-07-13T12:34:21;3.45;;;3.45;;
66669;SDS011;53568;52.164;4.472;2023-07-13T12:39:53;3.40;;;3.37;;
66669;SDS011;53568;52.164;4.472;2023-07-13T12:42:20;3.53;;;3.53;;
66669;SDS011;53568;52.164;4.472;2023-07-13T12:44:51;3.26;;;3.26;;
66669;SDS011;53568;52.164;4.472;2023-07-13T12:47:22;3.61;;;3.61;;
66669;SDS011;53568;52.164;4.472;2023-07-13T12:49:55;3.64;;;3.64;;
66669;SDS011;53568;52.164;4.472;2023-07-13T12:52:28;3.50;;;3.50;;
66669;SDS011;53568;52.164;4.472;2023-07-13T12:55:02;3.52;;;3.52;;
66669;SDS011;53568;52.164;4.472;2023-07-13T12:57:40;3.54;;;3.54;;
66669;SDS011;53568;52.164;4.472;2023-07-13T13:00:22;3.67;;;3.67;;
66669;SDS011;53568;52.164;4.472;2023-07-13T13:02:54;3.48;;;3.47;;
66669;SDS011;53568;52.164;4.472;2023-07-13T13:05:29;3.63;;;3.63;;
66669;SDS011;53568;52.164;4.472;2023-07-13T13:07:59;3.47;;;3.45;;
66669;SDS011;53568;52.164;4.472;2023-07-13T13:10:25;3.26;;;3.24;;
66669;SDS011;53568;52.164;4.472;2023-07-13T13:12:52;3.49;;;3.46;;
66669;SDS011;53568;52.164;4.472;2023-07-13T13:15:18;3.32;;;3.32;;
66669;SDS011;53568;52.164;4.472;2023-07-13T13:17:58;3.64;;;3.64;;
66669;SDS011;53568;52.164;4.472;2023-07-13T13:20:23;3.34;;;3.34;;
66669;SDS011;53568;52.164;4.472;2023-07-13T13:22:51;3.29;;;3.29;;
66669;SDS011;53568;52.164;4.472;2023-07-13T13:25:19;3.31;;;3.31;;
66669;SDS011;53568;52.164;4.472;2023-07-13T13:27:45;3.36;;;3.35;;
66669;SDS011;53568;52.164;4.472;2023-07-13T13:30:17;3.20;;;3.19;;
66669;SDS011;53568;52.164;4.472;2023-07-13T13:32:44;3.19;;;3.19;;
66669;SDS011;53568;52.164;4.472;2023-07-13T13:35:16;3.05;;;3.05;;
66669;SDS011;53568;52.164;4.472;2023-07-13T13:37:46;2.94;;;2.94;;
66669;SDS011;53568;52.164;4.472;2023-07-13T13:40:19;2.85;;;2.85;;
66669;SDS011;53568;52.164;4.472;2023-07-13T13:42:50;2.98;;;2.95;;
66669;SDS011;53568;52.164;4.472;2023-07-13T13:45:17;2.82;;;2.82;;
66669;SDS011;53568;52.164;4.472;2023-07-13T13:47:43;3.04;;;3.04;;
66669;SDS011;53568;52.164;4.472;2023-07-13T13:50:20;2.87;;;2.86;;
66669;SDS011;53568;52.164;4.472;2023-07-13T13:52:47;2.97;;;2.95;;
66669;SDS011;53568;52.164;4.472;2023-07-13T13:55:22;3.18;;;3.17;;
66669;SDS011;53568;52.164;4.472;2023-07-13T13:57:49;3.26;;;3.26;;
66669;SDS011;53568;52.164;4.472;2023-07-13T14:00:20;2.79;;;2.79;;
66669;SDS011;53568;52.164;4.472;2023-07-13T14:02:46;2.93;;;2.93;;
66669;SDS011;53568;52.164;4.472;2023-07-13T14:05:17;3.03;;;3.03;;
66669;SDS011;53568;52.164;4.472;2023-07-13T14:07:47;2.94;;;2.94;;
66669;SDS011;53568;52.164;4.472;2023-07-13T14:10:15;2.94;;;2.94;;
66669;SDS011;53568;52.164;4.472;2023-07-13T14:12:43;2.94;;;2.94;;
66669;SDS011;53568;52.164;4.472;2023-07-13T14:15:22;3.10;;;3.10;;
66669;SDS011;53568;52.164;4.472;2023-07-13T14:17:50;2.84;;;2.84;;
66669;SDS011;53568;52.164;4.472;2023-07-13T14:20:17;2.98;;;2.98;;
66669;SDS011;53568;52.164;4.472;2023-07-13T14:22:45;2.98;;;2.98;;
66669;SDS011;53568;52.164;4.472;2023-07-13T14:25:14;3.02;;;3.02;;
66669;SDS011;53568;52.164;4.472;2023-07-13T14:27:42;2.84;;;2.84;;
66669;SDS011;53568;52.164;4.472;2023-07-13T14:30:12;2.81;;;2.81;;
66669;SDS011;53568;52.164;4.472;2023-07-13T14:32:44;2.93;;;2.93;;
66669;SDS011;53568;52.164;4.472;2023-07-13T14:35:11;2.87;;;2.87;;
66669;SDS011;53568;52.164;4.472;2023-07-13T14:37:38;3.10;;;3.10;;
66669;SDS011;53568;52.164;4.472;2023-07-13T14:40:29;2.69;;;2.69;;
66669;SDS011;53568;52.164;4.472;2023-07-13T14:42:55;2.88;;;2.88;;
66669;SDS011;53568;52.164;4.472;2023-07-13T14:45:21;3.12;;;3.12;;
66669;SDS011;53568;52.164;4.472;2023-07-13T14:47:47;3.16;;;3.16;;
66669;SDS011;53568;52.164;4.472;2023-07-13T14:50:17;2.91;;;2.90;;
66669;SDS011;53568;52.164;4.472;2023-07-13T14:52:46;2.93;;;2.92;;
66669;SDS011;53568;52.164;4.472;2023-07-13T14:55:16;3.15;;;3.14;;
66669;SDS011;53568;52.164;4.472;2023-07-13T14:57:43;3.22;;;3.20;;
66669;SDS011;53568;52.164;4.472;2023-07-13T15:02:45;2.97;;;2.95;;
66669;SDS011;53568;52.164;4.472;2023-07-13T15:05:22;2.79;;;2.79;;
66669;SDS011;53568;52.164;4.472;2023-07-13T15:07:51;3.15;;;3.15;;
66669;SDS011;53568;52.164;4.472;2023-07-13T15:10:21;3.07;;;3.07;;
66669;SDS011;53568;52.164;4.472;2023-07-13T15:12:52;2.88;;;2.88;;
66669;SDS011;53568;52.164;4.472;2023-07-13T15:15:18;2.66;;;2.66;;
66669;SDS011;53568;52.164;4.472;2023-07-13T15:17:45;2.63;;;2.63;;
66669;SDS011;53568;52.164;4.472;2023-07-13T15:22:42;2.67;;;2.67;;
66669;SDS011;53568;52.164;4.472;2023-07-13T15:25:15;2.58;;;2.58;;
66669;SDS011;53568;52.164;4.472;2023-07-13T15:27:46;2.67;;;2.64;;
66669;SDS011;53568;52.164;4.472;2023-07-13T15:30:12;2.46;;;2.44;;
66669;SDS011;53568;52.164;4.472;2023-07-13T15:32:40;2.43;;;2.40;;
66669;SDS011;53568;52.164;4.472;2023-07-13T15:35:13;2.58;;;2.54;;
66669;SDS011;53568;52.164;4.472;2023-07-13T15:37:44;2.55;;;2.55;;
66669;SDS011;53568;52.164;4.472;2023-07-13T15:40:11;2.37;;;2.37;;